sensor_id;sensor_type;location;lat;lon;timestamp;P1;durP1;ratioP1;P2;durP2;ratioP2
9465;SDS011;4771;48.726;9.006;2023-03-19T00:01:46;9.57;;;5.10;;
9465;SDS011;4771;48.726;9.006;2023-03-19T00:04:13;10.23;;;5.53;;
9465;SDS011;4771;48.726;9.006;2023-03-19T00:06:40;9.23;;;5.30;;
9465;SDS011;4771;48.726;9.006;2023-03-19T00:09:07;12.63;;;5.57;;
9465;SDS011;4771;48.726;9.006;2023-03-19T00:11:34;13.33;;;5.33;;
9465;SDS011;4771;48.726;9.006;2023-03-19T00:14:01;10.53;;;5.60;;
9465;SDS011;4771;48.726;9.006;2023-03-19T00:16:28;10.90;;;4.93;;
9465;SDS011;4771;48.726;9.006;2023-03-19T00:18:56;11.67;;;4.97;;
9465;SDS011;4771;48.726;9.006;2023-03-19T00:21:23;9.00;;;4.47;;
9465;SDS011;4771;48.726;9.006;2023-03-19T00:23:50;11.83;;;5.00;;
9465;SDS011;4771;48.726;9.006;2023-03-19T00:26:17;9.13;;;4.77;;
9465;SDS011;4771;48.726;9.006;2023-03-19T00:28:44;9.13;;;4.27;;
9465;SDS011;4771;48.726;9.006;2023-03-19T00:31:11;10.73;;;5.10;;
9465;SDS011;4771;48.726;9.006;2023-03-19T00:33:40;8.57;;;5.00;;
9465;SDS011;4771;48.726;9.006;2023-03-19T00:36:09;11.43;;;4.80;;
9465;SDS011;4771;48.726;9.006;2023-03-19T00:38:37;10.97;;;5.03;;
9465;SDS011;4771;48.726;9.006;2023-03-19T00:41:04;9.00;;;4.70;;
9465;SDS011;4771;48.726;9.006;2023-03-19T00:43:31;7.57;;;4.70;;
9465;SDS011;4771;48.726;9.006;2023-03-19T00:45:59;11.10;;;5.00;;
9465;SDS011;4771;48.726;9.006;2023-03-19T00:48:26;11.23;;;4.70;;
9465;SDS011;4771;48.726;9.006;2023-03-19T00:50:53;9.03;;;4.80;;
9465;SDS011;4771;48.726;9.006;2023-03-19T00:53:21;11.43;;;5.20;;
9465;SDS011;4771;48.726;9.006;2023-03-19T00:55:48;13.57;;;5.87;;
9465;SDS011;4771;48.726;9.006;2023-03-19T00:58:15;13.27;;;6.20;;
9465;SDS011;4771;48.726;9.006;2023-03-19T01:00:41;12.43;;;5.93;;
9465;SDS011;4771;48.726;9.006;2023-03-19T01:03:09;12.90;;;6.23;;
9465;SDS011;4771;48.726;9.006;2023-03-19T01:05:36;10.47;;;5.70;;
9465;SDS011;4771;48.726;9.006;2023-03-19T01:08:03;11.77;;;5.80;;
9465;SDS011;4771;48.726;9.006;2023-03-19T01:10:31;10.53;;;4.83;;
9465;SDS011;4771;48.726;9.006;2023-03-19T01:12:59;9.80;;;5.03;;
9465;SDS011;4771;48.726;9.006;2023-03-19T01:15:26;9.37;;;4.73;;
9465;SDS011;4771;48.726;9.006;2023-03-19T01:17:53;10.67;;;5.03;;
9465;SDS011;4771;48.726;9.006;2023-03-19T01:20:20;8.37;;;4.87;;
9465;SDS011;4771;48.726;9.006;2023-03-19T01:22:48;7.73;;;4.70;;
9465;SDS011;4771;48.726;9.006;2023-03-19T01:25:16;7.83;;;4.60;;
9465;SDS011;4771;48.726;9.006;2023-03-19T01:27:44;7.63;;;4.07;;
9465;SDS011;4771;48.726;9.006;2023-03-19T01:30:11;9.57;;;4.13;;
9465;SDS011;4771;48.726;9.006;2023-03-19T01:32:38;11.33;;;4.27;;
9465;SDS011;4771;48.726;9.006;2023-03-19T01:35:05;6.00;;;3.93;;
9465;SDS011;4771;48.726;9.006;2023-03-19T01:37:33;4.63;;;3.10;;
9465;SDS011;4771;48.726;9.006;2023-03-19T01:40:01;5.77;;;3.67;;
9465;SDS011;4771;48.726;9.006;2023-03-19T01:42:28;7.97;;;3.70;;
9465;SDS011;4771;48.726;9.006;2023-03-19T01:44:56;6.27;;;3.60;;
9465;SDS011;4771;48.726;9.006;2023-03-19T01:47:26;6.47;;;3.27;;
9465;SDS011;4771;48.726;9.006;2023-03-19T01:49:56;6.27;;;2.83;;
9465;SDS011;4771;48.726;9.006;2023-03-19T01:52:25;5.93;;;2.60;;
9465;SDS011;4771;48.726;9.006;2023-03-19T01:54:56;5.10;;;2.80;;
9465;SDS011;4771;48.726;9.006;2023-03-19T01:57:24;4.93;;;2.87;;
9465;SDS011;4771;48.726;9.006;2023-03-19T01:59:52;3.83;;;2.40;;
9465;SDS011;4771;48.726;9.006;2023-03-19T02:02:25;4.30;;;2.90;;
9465;SDS011;4771;48.726;9.006;2023-03-19T02:04:56;4.37;;;3.00;;
9465;SDS011;4771;48.726;9.006;2023-03-19T02:07:26;5.70;;;3.30;;
9465;SDS011;4771;48.726;9.006;2023-03-19T02:09:54;5.67;;;3.10;;
9465;SDS011;4771;48.726;9.006;2023-03-19T02:12:22;4.10;;;3.00;;
9465;SDS011;4771;48.726;9.006;2023-03-19T02:14:49;5.07;;;3.17;;
9465;SDS011;4771;48.726;9.006;2023-03-19T02:17:16;5.07;;;3.17;;
9465;SDS011;4771;48.726;9.006;2023-03-19T02:19:47;6.17;;;3.17;;
9465;SDS011;4771;48.726;9.006;2023-03-19T02:22:20;8.77;;;3.33;;
9465;SDS011;4771;48.726;9.006;2023-03-19T02:24:50;5.03;;;3.47;;
9465;SDS011;4771;48.726;9.006;2023-03-19T02:27:21;4.83;;;3.00;;
9465;SDS011;4771;48.726;9.006;2023-03-19T02:29:48;6.00;;;3.27;;
9465;SDS011;4771;48.726;9.006;2023-03-19T02:32:15;5.10;;;3.23;;
9465;SDS011;4771;48.726;9.006;2023-03-19T02:34:42;6.60;;;3.17;;
9465;SDS011;4771;48.726;9.006;2023-03-19T02:37:11;4.73;;;2.90;;
9465;SDS011;4771;48.726;9.006;2023-03-19T02:39:45;5.83;;;3.10;;
9465;SDS011;4771;48.726;9.006;2023-03-19T02:42:16;5.67;;;3.23;;
9465;SDS011;4771;48.726;9.006;2023-03-19T02:44:46;6.87;;;3.80;;
9465;SDS011;4771;48.726;9.006;2023-03-19T02:47:13;3.83;;;2.80;;
9465;SDS011;4771;48.726;9.006;2023-03-19T02:49:40;6.60;;;3.13;;
9465;SDS011;4771;48.726;9.006;2023-03-19T02:52:07;6.20;;;3.30;;
9465;SDS011;4771;48.726;9.006;2023-03-19T02:54:34;7.73;;;3.50;;
9465;SDS011;4771;48.726;9.006;2023-03-19T02:57:01;6.73;;;3.67;;
9465;SDS011;4771;48.726;9.006;2023-03-19T02:59:28;6.63;;;3.37;;
9465;SDS011;4771;48.726;9.006;2023-03-19T03:01:56;5.20;;;3.50;;
9465;SDS011;4771;48.726;9.006;2023-03-19T03:04:23;5.73;;;3.27;;
9465;SDS011;4771;48.726;9.006;2023-03-19T03:06:50;7.40;;;3.83;;
9465;SDS011;4771;48.726;9.006;2023-03-19T03:09:18;4.30;;;3.20;;
9465;SDS011;4771;48.726;9.006;2023-03-19T03:11:45;4.80;;;3.00;;
9465;SDS011;4771;48.726;9.006;2023-03-19T03:14:12;4.43;;;3.20;;
9465;SDS011;4771;48.726;9.006;2023-03-19T03:16:39;7.57;;;3.50;;
9465;SDS011;4771;48.726;9.006;2023-03-19T03:19:07;4.90;;;3.37;;
9465;SDS011;4771;48.726;9.006;2023-03-19T03:21:34;5.73;;;3.20;;
9465;SDS011;4771;48.726;9.006;2023-03-19T03:24:01;4.97;;;3.60;;
9465;SDS011;4771;48.726;9.006;2023-03-19T03:26:28;5.33;;;3.67;;
9465;SDS011;4771;48.726;9.006;2023-03-19T03:28:55;4.70;;;3.30;;
9465;SDS011;4771;48.726;9.006;2023-03-19T03:31:22;5.63;;;3.50;;
9465;SDS011;4771;48.726;9.006;2023-03-19T03:33:51;5.33;;;3.50;;
9465;SDS011;4771;48.726;9.006;2023-03-19T03:36:19;8.43;;;3.80;;
9465;SDS011;4771;48.726;9.006;2023-03-19T03:38:46;7.07;;;3.17;;
9465;SDS011;4771;48.726;9.006;2023-03-19T03:41:13;7.97;;;3.80;;
9465;SDS011;4771;48.726;9.006;2023-03-19T03:43:40;5.83;;;4.00;;
9465;SDS011;4771;48.726;9.006;2023-03-19T03:46:07;5.67;;;3.63;;
9465;SDS011;4771;48.726;9.006;2023-03-19T03:48:34;5.67;;;3.50;;
9465;SDS011;4771;48.726;9.006;2023-03-19T03:51:01;4.53;;;3.53;;
9465;SDS011;4771;48.726;9.006;2023-03-19T03:53:30;4.87;;;3.47;;
9465;SDS011;4771;48.726;9.006;2023-03-19T03:55:57;4.97;;;3.43;;
9465;SDS011;4771;48.726;9.006;2023-03-19T03:58:24;6.50;;;3.57;;
9465;SDS011;4771;48.726;9.006;2023-03-19T04:00:50;6.93;;;3.77;;
9465;SDS011;4771;48.726;9.006;2023-03-19T04:03:18;6.37;;;3.53;;
9465;SDS011;4771;48.726;9.006;2023-03-19T04:05:46;4.97;;;3.50;;
9465;SDS011;4771;48.726;9.006;2023-03-19T04:08:13;5.87;;;3.40;;
9465;SDS011;4771;48.726;9.006;2023-03-19T04:10:41;6.77;;;3.90;;
9465;SDS011;4771;48.726;9.006;2023-03-19T04:13:08;6.47;;;3.50;;
9465;SDS011;4771;48.726;9.006;2023-03-19T04:15:36;6.00;;;3.50;;
9465;SDS011;4771;48.726;9.006;2023-03-19T04:18:03;7.13;;;3.70;;
9465;SDS011;4771;48.726;9.006;2023-03-19T04:20:30;5.90;;;3.60;;
9465;SDS011;4771;48.726;9.006;2023-03-19T04:22:57;6.73;;;3.73;;
9465;SDS011;4771;48.726;9.006;2023-03-19T04:25:24;6.60;;;3.77;;
9465;SDS011;4771;48.726;9.006;2023-03-19T04:27:52;6.47;;;3.40;;
9465;SDS011;4771;48.726;9.006;2023-03-19T04:30:21;4.13;;;3.40;;
9465;SDS011;4771;48.726;9.006;2023-03-19T04:32:49;6.63;;;3.63;;
9465;SDS011;4771;48.726;9.006;2023-03-19T04:35:16;6.07;;;3.60;;
9465;SDS011;4771;48.726;9.006;2023-03-19T04:37:43;5.77;;;3.80;;
9465;SDS011;4771;48.726;9.006;2023-03-19T04:40:12;4.70;;;3.50;;
9465;SDS011;4771;48.726;9.006;2023-03-19T04:42:40;5.90;;;4.10;;
9465;SDS011;4771;48.726;9.006;2023-03-19T04:45:10;6.37;;;3.90;;
9465;SDS011;4771;48.726;9.006;2023-03-19T04:47:37;6.30;;;4.17;;
9465;SDS011;4771;48.726;9.006;2023-03-19T04:50:04;5.60;;;4.23;;
9465;SDS011;4771;48.726;9.006;2023-03-19T04:52:33;5.30;;;3.97;;
9465;SDS011;4771;48.726;9.006;2023-03-19T04:55:01;5.50;;;3.70;;
9465;SDS011;4771;48.726;9.006;2023-03-19T04:57:28;5.50;;;4.30;;
9465;SDS011;4771;48.726;9.006;2023-03-19T04:59:55;6.53;;;4.03;;
9465;SDS011;4771;48.726;9.006;2023-03-19T05:02:23;5.60;;;3.80;;
9465;SDS011;4771;48.726;9.006;2023-03-19T05:04:51;6.33;;;4.03;;
9465;SDS011;4771;48.726;9.006;2023-03-19T05:07:18;7.13;;;3.80;;
9465;SDS011;4771;48.726;9.006;2023-03-19T05:09:45;7.07;;;3.70;;
9465;SDS011;4771;48.726;9.006;2023-03-19T05:12:12;6.20;;;4.00;;
9465;SDS011;4771;48.726;9.006;2023-03-19T05:14:39;6.77;;;4.53;;
9465;SDS011;4771;48.726;9.006;2023-03-19T05:17:06;5.37;;;3.97;;
9465;SDS011;4771;48.726;9.006;2023-03-19T05:19:36;5.87;;;4.07;;
9465;SDS011;4771;48.726;9.006;2023-03-19T05:22:03;4.97;;;4.30;;
9465;SDS011;4771;48.726;9.006;2023-03-19T05:24:32;8.77;;;4.20;;
9465;SDS011;4771;48.726;9.006;2023-03-19T05:27:02;6.23;;;3.97;;
9465;SDS011;4771;48.726;9.006;2023-03-19T05:29:29;5.57;;;4.80;;
9465;SDS011;4771;48.726;9.006;2023-03-19T05:31:56;8.50;;;5.10;;
9465;SDS011;4771;48.726;9.006;2023-03-19T05:34:23;4.63;;;4.13;;
9465;SDS011;4771;48.726;9.006;2023-03-19T05:36:52;4.50;;;3.70;;
9465;SDS011;4771;48.726;9.006;2023-03-19T05:39:19;5.27;;;3.80;;
9465;SDS011;4771;48.726;9.006;2023-03-19T05:41:46;4.73;;;3.60;;
9465;SDS011;4771;48.726;9.006;2023-03-19T05:44:13;6.93;;;4.27;;
9465;SDS011;4771;48.726;9.006;2023-03-19T05:46:40;5.30;;;3.77;;
9465;SDS011;4771;48.726;9.006;2023-03-19T05:49:07;6.83;;;4.53;;
9465;SDS011;4771;48.726;9.006;2023-03-19T05:51:34;5.13;;;4.63;;
9465;SDS011;4771;48.726;9.006;2023-03-19T05:54:03;4.83;;;3.77;;
9465;SDS011;4771;48.726;9.006;2023-03-19T05:56:30;4.70;;;3.73;;
9465;SDS011;4771;48.726;9.006;2023-03-19T05:58:56;4.83;;;3.90;;
9465;SDS011;4771;48.726;9.006;2023-03-19T06:01:23;4.47;;;3.67;;
9465;SDS011;4771;48.726;9.006;2023-03-19T06:03:50;5.30;;;3.60;;
9465;SDS011;4771;48.726;9.006;2023-03-19T06:06:17;8.27;;;4.73;;
9465;SDS011;4771;48.726;9.006;2023-03-19T06:08:44;8.60;;;6.60;;
9465;SDS011;4771;48.726;9.006;2023-03-19T06:11:13;9.10;;;5.03;;
9465;SDS011;4771;48.726;9.006;2023-03-19T06:13:40;6.20;;;4.53;;
9465;SDS011;4771;48.726;9.006;2023-03-19T06:16:08;5.13;;;3.87;;
9465;SDS011;4771;48.726;9.006;2023-03-19T06:18:35;5.67;;;3.93;;
9465;SDS011;4771;48.726;9.006;2023-03-19T06:21:02;4.10;;;3.70;;
9465;SDS011;4771;48.726;9.006;2023-03-19T06:23:29;5.60;;;3.80;;
9465;SDS011;4771;48.726;9.006;2023-03-19T06:25:56;6.43;;;4.27;;
9465;SDS011;4771;48.726;9.006;2023-03-19T06:28:25;8.13;;;3.93;;
9465;SDS011;4771;48.726;9.006;2023-03-19T06:30:53;4.20;;;3.50;;
9465;SDS011;4771;48.726;9.006;2023-03-19T06:33:20;4.97;;;3.90;;
9465;SDS011;4771;48.726;9.006;2023-03-19T06:35:49;6.60;;;4.30;;
9465;SDS011;4771;48.726;9.006;2023-03-19T06:38:16;6.40;;;3.70;;
9465;SDS011;4771;48.726;9.006;2023-03-19T06:40:43;5.60;;;3.83;;
9465;SDS011;4771;48.726;9.006;2023-03-19T06:43:10;4.73;;;3.97;;
9465;SDS011;4771;48.726;9.006;2023-03-19T06:45:38;5.77;;;3.60;;
9465;SDS011;4771;48.726;9.006;2023-03-19T06:48:05;7.43;;;5.83;;
9465;SDS011;4771;48.726;9.006;2023-03-19T06:50:32;4.87;;;3.90;;
9465;SDS011;4771;48.726;9.006;2023-03-19T06:52:59;5.70;;;3.60;;
9465;SDS011;4771;48.726;9.006;2023-03-19T06:55:26;5.03;;;3.47;;
9465;SDS011;4771;48.726;9.006;2023-03-19T06:57:55;7.47;;;3.77;;
9465;SDS011;4771;48.726;9.006;2023-03-19T07:00:22;5.53;;;3.70;;
9465;SDS011;4771;48.726;9.006;2023-03-19T07:02:50;5.03;;;3.33;;
9465;SDS011;4771;48.726;9.006;2023-03-19T07:05:17;5.40;;;3.50;;
9465;SDS011;4771;48.726;9.006;2023-03-19T07:07:44;6.10;;;3.80;;
9465;SDS011;4771;48.726;9.006;2023-03-19T07:10:11;5.97;;;4.67;;
9465;SDS011;4771;48.726;9.006;2023-03-19T07:12:38;5.10;;;4.30;;
9465;SDS011;4771;48.726;9.006;2023-03-19T07:15:05;5.37;;;4.37;;
9465;SDS011;4771;48.726;9.006;2023-03-19T07:17:33;6.97;;;3.63;;
9465;SDS011;4771;48.726;9.006;2023-03-19T07:20:01;5.03;;;3.03;;
9465;SDS011;4771;48.726;9.006;2023-03-19T07:22:28;4.90;;;3.40;;
9465;SDS011;4771;48.726;9.006;2023-03-19T07:24:55;6.93;;;2.90;;
9465;SDS011;4771;48.726;9.006;2023-03-19T07:27:22;6.13;;;3.23;;
9465;SDS011;4771;48.726;9.006;2023-03-19T07:29:51;4.40;;;2.90;;
9465;SDS011;4771;48.726;9.006;2023-03-19T07:32:19;7.73;;;3.07;;
9465;SDS011;4771;48.726;9.006;2023-03-19T07:34:47;5.30;;;4.80;;
9465;SDS011;4771;48.726;9.006;2023-03-19T07:37:16;5.43;;;3.57;;
9465;SDS011;4771;48.726;9.006;2023-03-19T07:39:43;4.83;;;2.90;;
9465;SDS011;4771;48.726;9.006;2023-03-19T07:42:10;5.30;;;2.90;;
9465;SDS011;4771;48.726;9.006;2023-03-19T07:44:36;5.35;;;3.28;;
9465;SDS011;4771;48.726;9.006;2023-03-19T07:47:03;4.77;;;3.10;;
9465;SDS011;4771;48.726;9.006;2023-03-19T07:49:31;4.53;;;3.40;;
9465;SDS011;4771;48.726;9.006;2023-03-19T07:51:58;5.63;;;3.20;;
9465;SDS011;4771;48.726;9.006;2023-03-19T07:54:26;4.23;;;3.00;;
9465;SDS011;4771;48.726;9.006;2023-03-19T07:56:53;4.27;;;3.40;;
9465;SDS011;4771;48.726;9.006;2023-03-19T07:59:20;3.70;;;2.60;;
9465;SDS011;4771;48.726;9.006;2023-03-19T08:01:47;3.37;;;2.77;;
9465;SDS011;4771;48.726;9.006;2023-03-19T08:04:14;4.32;;;2.72;;
9465;SDS011;4771;48.726;9.006;2023-03-19T08:06:45;5.77;;;2.67;;
9465;SDS011;4771;48.726;9.006;2023-03-19T08:09:12;6.38;;;2.70;;
9465;SDS011;4771;48.726;9.006;2023-03-19T08:11:40;5.32;;;2.42;;
9465;SDS011;4771;48.726;9.006;2023-03-19T08:14:07;3.57;;;2.13;;
9465;SDS011;4771;48.726;9.006;2023-03-19T08:16:34;3.78;;;2.25;;
9465;SDS011;4771;48.726;9.006;2023-03-19T08:19:01;4.03;;;2.07;;
9465;SDS011;4771;48.726;9.006;2023-03-19T08:21:28;4.70;;;2.50;;
9465;SDS011;4771;48.726;9.006;2023-03-19T08:23:57;5.20;;;2.40;;
9465;SDS011;4771;48.726;9.006;2023-03-19T08:26:24;5.13;;;2.77;;
9465;SDS011;4771;48.726;9.006;2023-03-19T08:28:53;3.63;;;2.60;;
9465;SDS011;4771;48.726;9.006;2023-03-19T08:31:19;4.90;;;2.47;;
9465;SDS011;4771;48.726;9.006;2023-03-19T08:33:46;3.83;;;2.22;;
9465;SDS011;4771;48.726;9.006;2023-03-19T08:36:13;3.55;;;2.53;;
9465;SDS011;4771;48.726;9.006;2023-03-19T08:38:41;4.80;;;2.60;;
9465;SDS011;4771;48.726;9.006;2023-03-19T08:41:08;3.10;;;2.08;;
9465;SDS011;4771;48.726;9.006;2023-03-19T08:43:35;2.92;;;1.90;;
9465;SDS011;4771;48.726;9.006;2023-03-19T08:46:04;2.17;;;1.80;;
9465;SDS011;4771;48.726;9.006;2023-03-19T08:48:31;6.15;;;2.20;;
9465;SDS011;4771;48.726;9.006;2023-03-19T08:50:58;2.50;;;1.90;;
9465;SDS011;4771;48.726;9.006;2023-03-19T08:53:27;3.05;;;1.90;;
9465;SDS011;4771;48.726;9.006;2023-03-19T08:55:55;3.28;;;1.83;;
9465;SDS011;4771;48.726;9.006;2023-03-19T08:58:23;2.97;;;2.00;;
9465;SDS011;4771;48.726;9.006;2023-03-19T09:00:51;3.20;;;2.40;;
9465;SDS011;4771;48.726;9.006;2023-03-19T09:03:19;4.43;;;1.95;;
9465;SDS011;4771;48.726;9.006;2023-03-19T09:05:46;3.67;;;2.90;;
9465;SDS011;4771;48.726;9.006;2023-03-19T09:08:13;5.35;;;4.47;;
9465;SDS011;4771;48.726;9.006;2023-03-19T09:10:40;5.32;;;3.40;;
9465;SDS011;4771;48.726;9.006;2023-03-19T09:13:07;18.40;;;3.70;;
9465;SDS011;4771;48.726;9.006;2023-03-19T09:15:34;4.68;;;1.80;;
9465;SDS011;4771;48.726;9.006;2023-03-19T09:18:01;4.78;;;2.08;;
9465;SDS011;4771;48.726;9.006;2023-03-19T09:20:29;3.05;;;1.70;;
9465;SDS011;4771;48.726;9.006;2023-03-19T09:22:56;5.68;;;2.22;;
9465;SDS011;4771;48.726;9.006;2023-03-19T09:25:23;3.03;;;2.13;;
9465;SDS011;4771;48.726;9.006;2023-03-19T09:27:50;8.57;;;7.70;;
9465;SDS011;4771;48.726;9.006;2023-03-19T09:30:17;7.15;;;3.60;;
9465;SDS011;4771;48.726;9.006;2023-03-19T09:32:44;8.32;;;5.55;;
9465;SDS011;4771;48.726;9.006;2023-03-19T09:35:10;3.58;;;2.80;;
9465;SDS011;4771;48.726;9.006;2023-03-19T09:37:39;4.90;;;2.40;;
9465;SDS011;4771;48.726;9.006;2023-03-19T09:40:06;4.65;;;2.25;;
9465;SDS011;4771;48.726;9.006;2023-03-19T09:42:43;4.10;;;2.05;;
9465;SDS011;4771;48.726;9.006;2023-03-19T09:45:18;5.50;;;2.05;;
9465;SDS011;4771;48.726;9.006;2023-03-19T09:47:46;6.40;;;2.03;;
9465;SDS011;4771;48.726;9.006;2023-03-19T09:50:17;3.70;;;2.10;;
9465;SDS011;4771;48.726;9.006;2023-03-19T09:52:48;3.17;;;2.00;;
9465;SDS011;4771;48.726;9.006;2023-03-19T09:55:28;8.77;;;5.32;;
9465;SDS011;4771;48.726;9.006;2023-03-19T09:58:04;3.30;;;1.95;;
9465;SDS011;4771;48.726;9.006;2023-03-19T10:00:38;4.82;;;2.03;;
9465;SDS011;4771;48.726;9.006;2023-03-19T10:03:09;4.22;;;2.55;;
9465;SDS011;4771;48.726;9.006;2023-03-19T10:05:50;3.22;;;2.00;;
9465;SDS011;4771;48.726;9.006;2023-03-19T10:08:34;2.80;;;2.10;;
9465;SDS011;4771;48.726;9.006;2023-03-19T10:11:16;3.60;;;2.90;;
9465;SDS011;4771;48.726;9.006;2023-03-19T10:13:57;1.92;;;1.60;;
9465;SDS011;4771;48.726;9.006;2023-03-19T10:16:30;3.42;;;1.92;;
9465;SDS011;4771;48.726;9.006;2023-03-19T10:18:57;5.78;;;2.63;;
9465;SDS011;4771;48.726;9.006;2023-03-19T10:21:28;7.63;;;3.67;;
9465;SDS011;4771;48.726;9.006;2023-03-19T10:24:02;4.65;;;2.47;;
9465;SDS011;4771;48.726;9.006;2023-03-19T10:26:32;4.85;;;2.67;;
9465;SDS011;4771;48.726;9.006;2023-03-19T10:29:05;3.15;;;1.70;;
9465;SDS011;4771;48.726;9.006;2023-03-19T10:31:39;3.13;;;1.73;;
9465;SDS011;4771;48.726;9.006;2023-03-19T10:34:12;4.55;;;2.10;;
9465;SDS011;4771;48.726;9.006;2023-03-19T10:36:46;3.70;;;1.63;;
9465;SDS011;4771;48.726;9.006;2023-03-19T10:39:15;3.58;;;1.83;;
9465;SDS011;4771;48.726;9.006;2023-03-19T10:41:48;5.95;;;1.88;;
9465;SDS011;4771;48.726;9.006;2023-03-19T10:44:24;4.07;;;2.05;;
9465;SDS011;4771;48.726;9.006;2023-03-19T10:46:56;3.35;;;2.17;;
9465;SDS011;4771;48.726;9.006;2023-03-19T10:49:24;2.95;;;2.10;;
9465;SDS011;4771;48.726;9.006;2023-03-19T10:51:51;3.38;;;1.95;;
9465;SDS011;4771;48.726;9.006;2023-03-19T10:54:24;3.58;;;2.00;;
9465;SDS011;4771;48.726;9.006;2023-03-19T10:56:53;4.97;;;1.90;;
9465;SDS011;4771;48.726;9.006;2023-03-19T10:59:22;5.35;;;2.05;;
9465;SDS011;4771;48.726;9.006;2023-03-19T11:01:55;4.45;;;2.00;;
9465;SDS011;4771;48.726;9.006;2023-03-19T11:04:23;3.78;;;1.83;;
9465;SDS011;4771;48.726;9.006;2023-03-19T11:06:53;4.40;;;1.80;;
9465;SDS011;4771;48.726;9.006;2023-03-19T11:09:25;4.43;;;1.90;;
9465;SDS011;4771;48.726;9.006;2023-03-19T11:11:58;3.67;;;1.88;;
9465;SDS011;4771;48.726;9.006;2023-03-19T11:14:33;2.50;;;1.63;;
9465;SDS011;4771;48.726;9.006;2023-03-19T11:17:03;4.85;;;2.00;;
9465;SDS011;4771;48.726;9.006;2023-03-19T11:19:33;3.10;;;1.67;;
9465;SDS011;4771;48.726;9.006;2023-03-19T11:22:13;3.58;;;2.10;;
9465;SDS011;4771;48.726;9.006;2023-03-19T11:24:49;4.32;;;1.88;;
9465;SDS011;4771;48.726;9.006;2023-03-19T11:27:27;2.63;;;1.80;;
9465;SDS011;4771;48.726;9.006;2023-03-19T11:29:55;5.10;;;1.90;;
9465;SDS011;4771;48.726;9.006;2023-03-19T11:35:33;5.35;;;2.30;;
9465;SDS011;4771;48.726;9.006;2023-03-19T11:38:03;3.22;;;1.83;;
9465;SDS011;4771;48.726;9.006;2023-03-19T11:40:40;3.38;;;1.90;;
9465;SDS011;4771;48.726;9.006;2023-03-19T11:43:24;3.58;;;1.85;;
9465;SDS011;4771;48.726;9.006;2023-03-19T11:46:05;3.15;;;2.20;;
9465;SDS011;4771;48.726;9.006;2023-03-19T11:48:45;2.72;;;2.00;;
9465;SDS011;4771;48.726;9.006;2023-03-19T11:51:31;3.25;;;1.92;;
9465;SDS011;4771;48.726;9.006;2023-03-19T11:54:04;2.65;;;1.77;;
9465;SDS011;4771;48.726;9.006;2023-03-19T11:56:42;5.85;;;3.35;;
9465;SDS011;4771;48.726;9.006;2023-03-19T11:59:23;3.85;;;2.15;;
9465;SDS011;4771;48.726;9.006;2023-03-19T12:02:05;7.85;;;2.13;;
9465;SDS011;4771;48.726;9.006;2023-03-19T12:04:55;3.22;;;2.08;;
9465;SDS011;4771;48.726;9.006;2023-03-19T12:07:39;4.75;;;2.40;;
9465;SDS011;4771;48.726;9.006;2023-03-19T12:10:21;5.18;;;2.10;;
9465;SDS011;4771;48.726;9.006;2023-03-19T12:13:05;4.38;;;2.25;;
9465;SDS011;4771;48.726;9.006;2023-03-19T12:15:41;3.65;;;1.95;;
9465;SDS011;4771;48.726;9.006;2023-03-19T12:18:20;5.80;;;2.47;;
9465;SDS011;4771;48.726;9.006;2023-03-19T12:20:58;3.17;;;1.90;;
9465;SDS011;4771;48.726;9.006;2023-03-19T12:23:36;4.75;;;2.08;;
9465;SDS011;4771;48.726;9.006;2023-03-19T12:26:13;4.22;;;2.10;;
9465;SDS011;4771;48.726;9.006;2023-03-19T12:28:52;5.47;;;2.00;;
9465;SDS011;4771;48.726;9.006;2023-03-19T12:31:43;4.95;;;2.15;;
9465;SDS011;4771;48.726;9.006;2023-03-19T12:34:19;5.10;;;2.17;;
9465;SDS011;4771;48.726;9.006;2023-03-19T12:37:02;1.77;;;1.63;;
9465;SDS011;4771;48.726;9.006;2023-03-19T12:39:39;6.53;;;2.45;;
9465;SDS011;4771;48.726;9.006;2023-03-19T12:42:11;5.28;;;1.98;;
9465;SDS011;4771;48.726;9.006;2023-03-19T12:44:45;5.20;;;2.20;;
9465;SDS011;4771;48.726;9.006;2023-03-19T12:47:16;4.32;;;2.33;;
9465;SDS011;4771;48.726;9.006;2023-03-19T12:49:50;12.70;;;3.45;;
9465;SDS011;4771;48.726;9.006;2023-03-19T12:52:22;6.78;;;2.72;;
9465;SDS011;4771;48.726;9.006;2023-03-19T12:54:54;8.27;;;2.60;;
9465;SDS011;4771;48.726;9.006;2023-03-19T12:57:26;6.93;;;2.67;;
9465;SDS011;4771;48.726;9.006;2023-03-19T13:00:02;5.40;;;2.25;;
9465;SDS011;4771;48.726;9.006;2023-03-19T13:02:32;6.22;;;2.53;;
9465;SDS011;4771;48.726;9.006;2023-03-19T13:05:05;6.68;;;2.42;;
9465;SDS011;4771;48.726;9.006;2023-03-19T13:07:39;5.63;;;2.17;;
9465;SDS011;4771;48.726;9.006;2023-03-19T13:10:17;3.63;;;1.92;;
9465;SDS011;4771;48.726;9.006;2023-03-19T13:12:46;5.90;;;2.20;;
9465;SDS011;4771;48.726;9.006;2023-03-19T13:15:18;7.60;;;2.17;;
9465;SDS011;4771;48.726;9.006;2023-03-19T13:17:53;4.35;;;1.95;;
9465;SDS011;4771;48.726;9.006;2023-03-19T13:20:27;5.22;;;2.13;;
9465;SDS011;4771;48.726;9.006;2023-03-19T13:23:04;2.97;;;2.08;;
9465;SDS011;4771;48.726;9.006;2023-03-19T13:25:37;4.82;;;2.35;;
9465;SDS011;4771;48.726;9.006;2023-03-19T13:28:08;4.82;;;2.67;;
9465;SDS011;4771;48.726;9.006;2023-03-19T13:30:38;3.67;;;1.95;;
9465;SDS011;4771;48.726;9.006;2023-03-19T13:33:12;3.17;;;2.15;;
9465;SDS011;4771;48.726;9.006;2023-03-19T13:35:45;3.53;;;2.08;;
9465;SDS011;4771;48.726;9.006;2023-03-19T13:38:17;4.60;;;2.30;;
9465;SDS011;4771;48.726;9.006;2023-03-19T13:40:47;3.22;;;1.88;;
9465;SDS011;4771;48.726;9.006;2023-03-19T13:43:22;4.40;;;1.90;;
9465;SDS011;4771;48.726;9.006;2023-03-19T13:46:28;4.65;;;2.00;;
9465;SDS011;4771;48.726;9.006;2023-03-19T13:49:01;2.90;;;1.85;;
9465;SDS011;4771;48.726;9.006;2023-03-19T13:51:43;5.00;;;2.20;;
9465;SDS011;4771;48.726;9.006;2023-03-19T13:54:14;2.50;;;1.88;;
9465;SDS011;4771;48.726;9.006;2023-03-19T13:59:33;3.38;;;2.05;;
9465;SDS011;4771;48.726;9.006;2023-03-19T14:02:12;3.17;;;1.90;;
9465;SDS011;4771;48.726;9.006;2023-03-19T14:05:15;2.83;;;1.80;;
9465;SDS011;4771;48.726;9.006;2023-03-19T14:07:44;3.60;;;1.80;;
9465;SDS011;4771;48.726;9.006;2023-03-19T14:10:20;3.20;;;1.70;;
9465;SDS011;4771;48.726;9.006;2023-03-19T14:12:50;4.95;;;1.98;;
9465;SDS011;4771;48.726;9.006;2023-03-19T14:15:27;3.28;;;2.13;;
9465;SDS011;4771;48.726;9.006;2023-03-19T14:17:58;2.92;;;1.80;;
9465;SDS011;4771;48.726;9.006;2023-03-19T14:20:28;3.28;;;1.90;;
9465;SDS011;4771;48.726;9.006;2023-03-19T14:23:02;3.20;;;2.08;;
9465;SDS011;4771;48.726;9.006;2023-03-19T14:25:52;3.95;;;1.90;;
9465;SDS011;4771;48.726;9.006;2023-03-19T14:28:26;4.90;;;2.40;;
9465;SDS011;4771;48.726;9.006;2023-03-19T14:30:59;4.25;;;2.10;;
9465;SDS011;4771;48.726;9.006;2023-03-19T14:33:31;4.00;;;2.13;;
9465;SDS011;4771;48.726;9.006;2023-03-19T14:36:11;3.40;;;1.92;;
9465;SDS011;4771;48.726;9.006;2023-03-19T14:38:44;3.53;;;2.03;;
9465;SDS011;4771;48.726;9.006;2023-03-19T14:41:16;4.20;;;2.00;;
9465;SDS011;4771;48.726;9.006;2023-03-19T14:43:59;4.40;;;2.25;;
9465;SDS011;4771;48.726;9.006;2023-03-19T14:46:53;3.40;;;1.90;;
9465;SDS011;4771;48.726;9.006;2023-03-19T14:49:47;4.72;;;2.20;;
9465;SDS011;4771;48.726;9.006;2023-03-19T14:52:37;3.13;;;1.92;;
9465;SDS011;4771;48.726;9.006;2023-03-19T14:55:12;2.90;;;1.95;;
9465;SDS011;4771;48.726;9.006;2023-03-19T14:57:40;4.28;;;2.10;;
9465;SDS011;4771;48.726;9.006;2023-03-19T15:00:11;2.63;;;2.10;;
9465;SDS011;4771;48.726;9.006;2023-03-19T15:02:40;4.25;;;1.80;;
9465;SDS011;4771;48.726;9.006;2023-03-19T15:05:12;3.35;;;1.90;;
9465;SDS011;4771;48.726;9.006;2023-03-19T15:07:52;3.95;;;2.25;;
9465;SDS011;4771;48.726;9.006;2023-03-19T15:10:22;2.95;;;2.30;;
9465;SDS011;4771;48.726;9.006;2023-03-19T15:15:56;6.53;;;2.10;;
9465;SDS011;4771;48.726;9.006;2023-03-19T15:18:42;4.07;;;1.92;;
9465;SDS011;4771;48.726;9.006;2023-03-19T15:21:10;5.88;;;2.50;;
9465;SDS011;4771;48.726;9.006;2023-03-19T15:23:38;3.50;;;2.20;;
9465;SDS011;4771;48.726;9.006;2023-03-19T15:26:06;3.35;;;2.10;;
9465;SDS011;4771;48.726;9.006;2023-03-19T15:28:43;4.53;;;1.90;;
9465;SDS011;4771;48.726;9.006;2023-03-19T15:31:12;4.07;;;2.10;;
9465;SDS011;4771;48.726;9.006;2023-03-19T15:33:40;4.78;;;2.47;;
9465;SDS011;4771;48.726;9.006;2023-03-19T15:36:07;7.28;;;2.75;;
9465;SDS011;4771;48.726;9.006;2023-03-19T15:38:43;5.55;;;3.08;;
9465;SDS011;4771;48.726;9.006;2023-03-19T15:41:13;5.30;;;2.40;;
9465;SDS011;4771;48.726;9.006;2023-03-19T15:43:42;4.38;;;2.40;;